RKPC/CJU METAR and TAF weather

Enter ICAO airport designator
Station Type Date Time Source
RKPC METAR 2022/01/29 10:00 UTC NOAA

RKPC 291000Z 01006KT 310V060 9999 FEW030 BKN160 04/M04 Q1021 NOSIG


Station Type Date Time Source
RKPC Decoded METAR 2022/01/29 10:00 UTC NOAA

Cheju International Airport, Korea, South (RKPC) 33-30N 126-30E 28M
Jan 29, 2022 - 05:00 AM EST / 2022.01.29 1000 UTC
Wind: from the N (010 degrees) at 7 MPH (6 KT) (direction variable):0
Visibility: greater than 7 mile(s):0
Sky conditions: mostly cloudy
Temperature: 39 F (4 C)
Dew Point: 24 F (-4 C)
Relative Humidity: 55%
Pressure (altimeter): 30.15 in. Hg (1021 hPa)
ob: RKPC 291000Z 01006KT 310V060 9999 FEW030 BKN160 04/M04 Q1021 NOSIG
cycle: 10

Station Type Date Time Source
RKPC TAF 2022/01/29 06:08 UTC NOAA

TAF RKPC 290500Z 2906/3012 35007KT 9999 SCT030 BKN150 TN03/2920Z TX05/3005Z

Example: see airport list